TimeMST,TemperatureF,Dew PointF,Humidity,Sea Level PressureIn,VisibilityMPH,Wind Direction,Wind SpeedMPH,Gust SpeedMPH,PrecipitationIn,Events,Conditions,WindDirDegrees,DateUTC
12:53 AM,17.1,12.9,84,29.77,9.0,Calm,Calm,-,N/A,,Overcast,0,2014-01-09 07:53:00
1:53 AM,18.0,14.0,84,29.75,9.0,Calm,Calm,-,N/A,,Overcast,0,2014-01-09 08:53:00
2:53 AM,18.0,14.0,84,29.74,8.0,Calm,Calm,-,N/A,,Overcast,0,2014-01-09 09:53:00
3:53 AM,15.1,10.9,84,29.73,8.0,Calm,Calm,-,N/A,,Clear,0,2014-01-09 10:53:00
4:53 AM,12.0,9.0,88,29.73,6.0,Calm,Calm,-,N/A,,Clear,0,2014-01-09 11:53:00
5:53 AM,10.9,7.0,84,29.70,8.0,Calm,Calm,-,N/A,,Clear,0,2014-01-09 12:53:00
6:53 AM,10.9,7.0,84,29.69,10.0,Calm,Calm,-,N/A,,Clear,0,2014-01-09 13:53:00
7:53 AM,10.0,6.1,84,29.69,10.0,Calm,Calm,-,N/A,,Clear,0,2014-01-09 14:53:00
8:53 AM,10.9,8.1,88,29.69,9.0,East,3.5,-,N/A,,Clear,80,2014-01-09 15:53:00
9:53 AM,14.0,10.0,84,29.69,8.0,Calm,Calm,-,N/A,,Clear,0,2014-01-09 16:53:00
10:53 AM,18.0,14.0,84,29.68,10.0,Calm,Calm,-,N/A,,Clear,0,2014-01-09 17:53:00
11:53 AM,25.0,19.0,78,29.64,10.0,Calm,Calm,-,N/A,,Clear,0,2014-01-09 18:53:00
12:53 PM,28.9,21.0,72,29.61,10.0,Calm,Calm,-,N/A,,Clear,0,2014-01-09 19:53:00
1:53 PM,33.1,23.0,66,29.60,10.0,Calm,Calm,-,N/A,,Partly Cloudy,0,2014-01-09 20:53:00
2:53 PM,34.0,23.0,64,29.60,10.0,Calm,Calm,-,N/A,,Overcast,0,2014-01-09 21:53:00
4:53 PM,32.0,24.1,73,29.62,10.0,WSW,4.6,-,N/A,,Overcast,250,2014-01-09 23:53:00
5:53 PM,27.0,21.0,78,29.62,10.0,West,3.5,-,N/A,,Partly Cloudy,280,2014-01-10 00:53:00
6:53 PM,27.0,21.9,81,29.63,10.0,SW,4.6,-,N/A,,Partly Cloudy,220,2014-01-10 01:53:00
7:53 PM,25.0,21.0,85,29.63,10.0,SW,8.1,-,N/A,,Clear,230,2014-01-10 02:53:00
8:53 PM,25.0,21.0,85,29.63,10.0,WSW,3.5,-,N/A,,Clear,240,2014-01-10 03:53:00
9:53 PM,19.9,17.1,89,29.62,10.0,WSW,5.8,-,N/A,,Clear,240,2014-01-10 04:53:00
10:53 PM,21.0,18.0,88,29.62,10.0,West,4.6,-,N/A,,Clear,280,2014-01-10 05:53:00
11:53 PM,21.9,18.0,85,29.60,10.0,SW,5.8,-,N/A,,Clear,220,2014-01-10 06:53:00